createdAt,value
2023-03-29T00:00:28.027Z,7.7
2023-03-29T00:01:35.238Z,7.7
2023-03-29T00:02:27.986Z,7.68
2023-03-29T00:03:28.072Z,7.68
2023-03-29T00:04:28.356Z,7.68
2023-03-29T00:05:27.947Z,7.67
2023-03-29T00:06:27.927Z,7.68
2023-03-29T00:07:28.071Z,7.64
2023-03-29T00:08:27.949Z,7.64
2023-03-29T00:09:28.345Z,7.64
2023-03-29T00:10:30.262Z,7.63
2023-03-29T00:11:27.924Z,7.62
2023-03-29T00:12:27.925Z,7.62
2023-03-29T00:13:27.933Z,7.64
2023-03-29T00:14:28.339Z,7.65
2023-03-29T00:15:27.921Z,7.64
2023-03-29T00:16:28.365Z,7.64
2023-03-29T00:17:27.957Z,7.65
2023-03-29T00:18:27.952Z,7.65
2023-03-29T00:19:28.338Z,7.66
2023-03-29T00:20:28.001Z,7.66
2023-03-29T00:21:30.379Z,7.65
2023-03-29T00:22:27.943Z,7.64
2023-03-29T00:23:27.926Z,7.61
2023-03-29T00:24:28.348Z,7.61
2023-03-29T00:25:27.948Z,7.6
2023-03-29T00:26:27.923Z,7.62
2023-03-29T00:27:27.929Z,7.64
2023-03-29T00:28:28.038Z,7.61
2023-03-29T00:29:28.332Z,7.61
2023-03-29T00:30:27.940Z,7.57
2023-03-29T00:31:28.362Z,7.53
2023-03-29T00:32:30.329Z,7.53
2023-03-29T00:33:28.058Z,7.53
2023-03-29T00:34:28.364Z,7.55
2023-03-29T00:35:27.977Z,7.56
2023-03-29T00:36:27.991Z,7.56
2023-03-29T00:37:28.007Z,7.57
2023-03-29T00:38:27.946Z,7.58
2023-03-29T00:39:28.350Z,7.59
2023-03-29T00:40:27.945Z,7.6
2023-03-29T00:41:27.903Z,7.6
2023-03-29T00:42:27.927Z,7.58
2023-03-29T00:43:30.300Z,7.55
2023-03-29T00:44:28.333Z,7.53
2023-03-29T00:45:27.947Z,7.55
2023-03-29T00:46:28.390Z,7.56
2023-03-29T00:47:28.052Z,7.56
2023-03-29T00:48:27.954Z,7.56
2023-03-29T00:49:28.338Z,7.55
2023-03-29T00:50:28.005Z,7.57
2023-03-29T00:51:27.944Z,7.59
2023-03-29T00:52:28.040Z,7.62
2023-03-29T00:53:27.931Z,7.62
2023-03-29T00:54:32.833Z,7.62
2023-03-29T00:55:27.960Z,7.64
2023-03-29T00:56:27.924Z,7.65
2023-03-29T00:57:27.994Z,7.66
2023-03-29T00:58:28.070Z,7.67
2023-03-29T00:59:28.356Z,7.67
2023-03-29T01:00:27.942Z,7.62
2023-03-29T01:01:28.492Z,7.6
2023-03-29T01:02:28.073Z,7.59
2023-03-29T01:03:28.012Z,7.58
2023-03-29T01:04:28.343Z,7.58
2023-03-29T01:05:30.314Z,7.58
2023-03-29T01:06:28.096Z,7.56
2023-03-29T01:07:28.023Z,7.56
2023-03-29T01:08:28.085Z,7.56
2023-03-29T01:09:28.348Z,7.56
2023-03-29T01:10:27.941Z,7.58
2023-03-29T01:11:28.301Z,7.6
2023-03-29T01:12:27.944Z,7.62
2023-03-29T01:13:27.929Z,7.66
2023-03-29T01:14:28.337Z,7.68
2023-03-29T01:15:27.940Z,7.68
2023-03-29T01:16:32.882Z,7.69
2023-03-29T01:17:28.104Z,7.71
2023-03-29T01:18:27.949Z,7.72
2023-03-29T01:19:28.320Z,7.71
2023-03-29T01:20:28.081Z,7.68
2023-03-29T01:21:27.940Z,7.66
2023-03-29T01:22:27.950Z,7.65
2023-03-29T01:23:28.017Z,7.62
2023-03-29T01:24:29.172Z,7.59
2023-03-29T01:25:28.080Z,7.56
2023-03-29T01:26:27.940Z,7.55
2023-03-29T01:27:30.326Z,7.56
2023-03-29T01:28:27.899Z,7.55
2023-03-29T01:29:28.347Z,7.55
2023-03-29T01:30:27.897Z,7.58
2023-03-29T01:31:28.365Z,7.61
2023-03-29T01:32:28.484Z,7.63
2023-03-29T01:33:27.941Z,7.62
2023-03-29T01:34:27.946Z,7.61
2023-03-29T01:35:27.947Z,7.6
2023-03-29T01:36:27.948Z,7.57
2023-03-29T01:37:28.357Z,7.53
2023-03-29T01:38:30.304Z,7.53
2023-03-29T01:39:27.949Z,7.52
2023-03-29T01:40:28.363Z,7.51
2023-03-29T01:41:27.900Z,7.5
2023-03-29T01:42:28.411Z,7.46
2023-03-29T01:43:27.963Z,7.42
2023-03-29T01:44:27.933Z,7.39
2023-03-29T01:45:27.944Z,7.37
2023-03-29T01:46:28.053Z,7.36
2023-03-29T01:47:28.371Z,7.37
2023-03-29T01:48:27.947Z,7.4
2023-03-29T01:49:30.244Z,7.41
2023-03-29T01:50:27.949Z,7.42
2023-03-29T01:51:27.924Z,7.44
2023-03-29T01:52:28.360Z,7.44
2023-03-29T01:53:27.946Z,7.45
2023-03-29T01:54:27.967Z,7.45
2023-03-29T01:55:28.378Z,7.43
2023-03-29T01:56:27.919Z,7.45
2023-03-29T01:57:28.376Z,7.44
2023-03-29T01:58:27.923Z,7.44
2023-03-29T01:59:27.962Z,7.44
2023-03-29T02:00:30.391Z,7.43
2023-03-29T02:01:28.005Z,7.43
2023-03-29T02:02:28.492Z,7.43
2023-03-29T02:03:28.093Z,7.4
2023-03-29T02:04:28.025Z,7.42
2023-03-29T02:05:28.052Z,7.38
2023-03-29T02:06:27.942Z,7.36
2023-03-29T02:07:28.362Z,7.35
2023-03-29T02:08:27.953Z,7.33
2023-03-29T02:09:27.949Z,7.34
2023-03-29T02:10:28.351Z,7.34
2023-03-29T02:11:30.233Z,7.33
2023-03-29T02:12:28.358Z,7.32
2023-03-29T02:13:27.947Z,7.3
2023-03-29T02:14:27.945Z,7.27
2023-03-29T02:15:27.956Z,7.25
2023-03-29T02:16:27.958Z,7.26
2023-03-29T02:17:28.663Z,7.25
2023-03-29T02:18:27.948Z,7.24
2023-03-29T02:19:28.095Z,7.21
2023-03-29T02:20:27.933Z,7.18
2023-03-29T02:21:28.075Z,7.14
2023-03-29T02:22:32.803Z,7.14
2023-03-29T02:23:27.973Z,7.14
2023-03-29T02:24:27.941Z,7.19
2023-03-29T02:25:28.341Z,7.18
2023-03-29T02:26:27.922Z,7.2
2023-03-29T02:27:28.343Z,7.21
2023-03-29T02:28:27.971Z,7.21
2023-03-29T02:29:27.936Z,7.2
2023-03-29T02:30:27.976Z,7.22
2023-03-29T02:31:28.007Z,7.18
2023-03-29T02:32:28.389Z,7.14
2023-03-29T02:33:30.403Z,7.13
2023-03-29T02:34:27.924Z,7.1
2023-03-29T02:35:27.940Z,7.07
2023-03-29T02:36:27.925Z,7.04
2023-03-29T02:37:28.349Z,7.02
2023-03-29T02:38:27.957Z,7.01
2023-03-29T02:39:27.944Z,7.01
2023-03-29T02:40:28.353Z,6.98
2023-03-29T02:41:27.903Z,6.99
2023-03-29T02:42:28.388Z,7.02
2023-03-29T02:43:28.012Z,7.03
2023-03-29T02:44:30.319Z,7.04
2023-03-29T02:45:27.944Z,7.03
2023-03-29T02:46:27.987Z,7.02
2023-03-29T02:47:28.380Z,7
2023-03-29T02:48:28.037Z,7.01
2023-03-29T02:49:27.928Z,7.01
2023-03-29T02:50:27.949Z,7
2023-03-29T02:51:27.931Z,6.99
2023-03-29T02:52:28.354Z,7
2023-03-29T02:53:27.969Z,7.04
2023-03-29T02:54:27.933Z,7.08
2023-03-29T02:55:32.778Z,7.11
2023-03-29T02:56:27.961Z,7.14
2023-03-29T02:57:28.356Z,7.16
2023-03-29T02:58:27.944Z,7.15
2023-03-29T02:59:27.948Z,7.16
2023-03-29T03:00:27.958Z,7.18
2023-03-29T03:01:28.131Z,7.2
2023-03-29T03:02:28.457Z,7.18
2023-03-29T03:03:28.032Z,7.18
2023-03-29T03:04:27.934Z,7.19
2023-03-29T03:05:27.946Z,7.21
2023-03-29T03:06:30.268Z,7.2
2023-03-29T03:07:28.340Z,7.21
2023-03-29T03:08:27.947Z,7.21
2023-03-29T03:09:27.946Z,7.22
2023-03-29T03:10:28.367Z,7.24
2023-03-29T03:11:27.914Z,7.26
2023-03-29T03:12:28.348Z,7.29
2023-03-29T03:13:28.023Z,7.33
2023-03-29T03:14:27.981Z,7.36
2023-03-29T03:15:27.948Z,7.39
2023-03-29T03:16:28.063Z,7.39
2023-03-29T03:17:32.825Z,7.38
2023-03-29T03:18:27.948Z,7.39
2023-03-29T03:19:27.936Z,7.39
2023-03-29T03:20:27.959Z,7.35
2023-03-29T03:21:28.098Z,7.31
2023-03-29T03:22:28.355Z,7.3
2023-03-29T03:23:27.950Z,7.28
2023-03-29T03:24:27.973Z,7.27
2023-03-29T03:25:28.361Z,7.24
2023-03-29T03:26:27.944Z,7.19
2023-03-29T03:27:28.358Z,7.16
2023-03-29T03:28:30.318Z,7.15
2023-03-29T03:29:28.050Z,7.13
2023-03-29T03:30:28.061Z,7.11
2023-03-29T03:31:27.994Z,7.08
2023-03-29T03:32:27.985Z,7.1
2023-03-29T03:33:28.362Z,7.14
2023-03-29T03:34:28.015Z,7.17
2023-03-29T03:35:27.988Z,7.19
2023-03-29T03:36:28.073Z,7.2
2023-03-29T03:37:27.938Z,7.21
2023-03-29T03:38:28.362Z,7.23
2023-03-29T03:39:30.319Z,7.27
2023-03-29T03:40:28.483Z,7.29
2023-03-29T03:41:27.905Z,7.3
2023-03-29T03:42:28.010Z,7.32
2023-03-29T03:43:28.326Z,7.34
2023-03-29T03:44:27.962Z,7.34
2023-03-29T03:45:28.007Z,7.35
2023-03-29T03:46:29.618Z,7.37
2023-03-29T03:47:27.991Z,7.36
2023-03-29T03:48:28.327Z,7.35
2023-03-29T03:49:27.933Z,7.36
2023-03-29T03:50:30.297Z,7.37
2023-03-29T03:51:27.913Z,7.39
2023-03-29T03:52:27.943Z,7.4
2023-03-29T03:53:28.077Z,7.42
2023-03-29T03:54:28.054Z,7.44
2023-03-29T03:55:28.369Z,7.45
2023-03-29T03:56:27.945Z,7.44
2023-03-29T03:57:27.944Z,7.4
2023-03-29T03:58:28.346Z,7.33
2023-03-29T03:59:27.924Z,7.3
2023-03-29T04:00:27.944Z,7.24
2023-03-29T04:01:30.333Z,7.24
2023-03-29T04:02:28.013Z,7.24
2023-03-29T04:03:28.437Z,7.25
2023-03-29T04:04:27.970Z,7.26
2023-03-29T04:05:28.065Z,7.25
2023-03-29T04:06:27.931Z,7.24
2023-03-29T04:07:27.926Z,7.26
2023-03-29T04:08:28.331Z,7.28
2023-03-29T04:09:27.945Z,7.3
2023-03-29T04:10:28.343Z,7.28
2023-03-29T04:11:27.898Z,7.27
2023-03-29T04:12:30.325Z,7.28
2023-03-29T04:13:28.368Z,7.3
2023-03-29T04:14:27.961Z,7.32
2023-03-29T04:15:28.007Z,7.33
2023-03-29T04:16:27.997Z,7.35
2023-03-29T04:17:27.940Z,7.36
2023-03-29T04:18:28.518Z,7.36
2023-03-29T04:19:28.055Z,7.37
2023-03-29T04:20:27.929Z,7.38
2023-03-29T04:21:27.927Z,7.38
2023-03-29T04:22:28.075Z,7.37
2023-03-29T04:23:32.789Z,7.36
2023-03-29T04:24:27.925Z,7.36
2023-03-29T04:25:28.365Z,7.38
2023-03-29T04:26:27.948Z,7.42
2023-03-29T04:27:27.948Z,7.43
2023-03-29T04:28:28.359Z,7.42
2023-03-29T04:29:27.948Z,7.44
2023-03-29T04:30:28.060Z,7.46
2023-03-29T04:31:28.003Z,7.47
2023-03-29T04:32:27.993Z,7.49
2023-03-29T04:33:28.358Z,7.5
2023-03-29T04:34:30.265Z,7.5
2023-03-29T04:35:27.949Z,7.51
2023-03-29T04:36:27.912Z,7.5
2023-03-29T04:37:27.927Z,7.51
2023-03-29T04:38:28.379Z,7.52
2023-03-29T04:39:27.934Z,7.54
2023-03-29T04:40:28.344Z,7.55
2023-03-29T04:41:27.899Z,7.56
2023-03-29T04:42:28.084Z,7.55
2023-03-29T04:43:28.345Z,7.56
2023-03-29T04:44:27.932Z,7.55
2023-03-29T04:45:30.329Z,7.55
2023-03-29T04:46:28.014Z,7.56
2023-03-29T04:47:27.984Z,7.57
2023-03-29T04:48:28.356Z,7.56
2023-03-29T04:49:27.973Z,7.57
2023-03-29T04:50:28.111Z,7.58
2023-03-29T04:51:28.090Z,7.56
2023-03-29T04:52:27.951Z,7.56
2023-03-29T04:53:28.337Z,7.57
2023-03-29T04:54:27.955Z,7.59
2023-03-29T04:55:28.400Z,7.61
2023-03-29T04:56:30.349Z,7.64
2023-03-29T04:57:27.983Z,7.66
2023-03-29T04:58:32.172Z,7.63
2023-03-29T04:59:28.108Z,7.6
2023-03-29T05:00:27.943Z,7.54
2023-03-29T05:01:27.966Z,7.49
2023-03-29T05:02:28.004Z,7.49
2023-03-29T05:03:28.378Z,7.51
2023-03-29T05:04:28.111Z,7.54
2023-03-29T05:05:28.008Z,7.52
2023-03-29T05:06:27.947Z,7.51
2023-03-29T05:07:30.281Z,7.48
2023-03-29T05:08:28.382Z,7.48
2023-03-29T05:09:27.943Z,7.54
2023-03-29T05:10:28.364Z,7.55
2023-03-29T05:11:28.337Z,7.52
2023-03-29T05:12:28.071Z,7.48
2023-03-29T05:13:28.340Z,7.47
2023-03-29T05:14:27.947Z,7.46
2023-03-29T05:15:27.938Z,7.45
2023-03-29T05:16:27.955Z,7.42
2023-03-29T05:17:27.986Z,7.39
2023-03-29T05:18:32.827Z,7.4
2023-03-29T05:19:27.936Z,7.43
2023-03-29T05:20:27.964Z,7.44
2023-03-29T05:21:27.943Z,7.45
2023-03-29T05:22:27.954Z,7.5
2023-03-29T05:23:28.355Z,7.51
2023-03-29T05:24:27.945Z,7.53
2023-03-29T05:25:28.357Z,7.55
2023-03-29T05:26:27.936Z,7.54
2023-03-29T05:27:27.970Z,7.52
2023-03-29T05:28:28.340Z,7.51
2023-03-29T05:29:30.307Z,7.51
2023-03-29T05:30:27.981Z,7.55
2023-03-29T05:31:27.950Z,7.6
2023-03-29T05:32:27.997Z,7.66
2023-03-29T05:33:28.366Z,7.73
2023-03-29T05:34:27.947Z,7.79
2023-03-29T05:35:27.943Z,7.83
2023-03-29T05:36:27.957Z,7.84
2023-03-29T05:37:27.963Z,7.87
2023-03-29T05:38:28.352Z,7.88
2023-03-29T05:39:27.924Z,7.89
2023-03-29T05:40:32.789Z,7.91
2023-03-29T05:41:27.905Z,7.95
2023-03-29T05:42:27.931Z,8
2023-03-29T05:43:28.371Z,8.04
2023-03-29T05:44:28.083Z,8.05
2023-03-29T05:45:27.992Z,8.09
2023-03-29T05:46:27.952Z,8.15
2023-03-29T05:47:27.974Z,8.22
2023-03-29T05:48:28.350Z,8.24
2023-03-29T05:49:27.940Z,8.25
2023-03-29T05:50:27.943Z,8.24
2023-03-29T05:51:30.324Z,8.27
2023-03-29T05:52:28.010Z,8.31
2023-03-29T05:53:28.334Z,8.32
2023-03-29T05:54:27.949Z,8.32
2023-03-29T05:55:28.359Z,8.31
2023-03-29T05:56:27.947Z,8.33
2023-03-29T05:57:28.079Z,8.34
2023-03-29T05:58:28.373Z,8.34
2023-03-29T05:59:27.973Z,8.41
2023-03-29T06:00:28.016Z,8.52
2023-03-29T06:01:27.934Z,8.6
2023-03-29T06:02:30.383Z,8.69
2023-03-29T06:03:28.559Z,8.74
2023-03-29T06:04:28.032Z,8.74
2023-03-29T06:05:27.946Z,8.71
2023-03-29T06:06:28.017Z,8.67
2023-03-29T06:07:27.944Z,8.59
2023-03-29T06:08:28.376Z,8.56
2023-03-29T06:09:27.951Z,8.6
2023-03-29T06:10:28.371Z,8.66
2023-03-29T06:11:27.911Z,8.76
2023-03-29T06:12:27.946Z,8.87
2023-03-29T06:13:32.775Z,8.95
2023-03-29T06:14:27.968Z,9
2023-03-29T06:15:28.019Z,9.08
2023-03-29T06:16:28.111Z,9.11
2023-03-29T06:17:27.983Z,9.17
2023-03-29T06:18:28.362Z,9.27
2023-03-29T06:19:27.948Z,9.44
2023-03-29T06:20:27.941Z,9.58
2023-03-29T06:21:28.083Z,9.7
2023-03-29T06:22:27.943Z,9.76
2023-03-29T06:23:28.337Z,9.85
2023-03-29T06:24:30.402Z,9.9
2023-03-29T06:25:28.379Z,9.95
2023-03-29T06:26:27.923Z,9.99
2023-03-29T06:27:27.946Z,9.99
2023-03-29T06:28:28.353Z,9.95
2023-03-29T06:29:27.961Z,9.95
2023-03-29T06:30:27.969Z,9.95
2023-03-29T06:31:27.976Z,9.94
2023-03-29T06:32:27.998Z,9.94
2023-03-29T06:33:28.345Z,9.88
2023-03-29T06:34:28.023Z,9.86
2023-03-29T06:35:30.332Z,9.88
2023-03-29T06:36:27.936Z,9.89
2023-03-29T06:37:27.951Z,9.93
2023-03-29T06:38:28.599Z,9.99
2023-03-29T06:39:27.961Z,9.97
2023-03-29T06:40:28.359Z,10.06
2023-03-29T06:41:27.908Z,10.17
2023-03-29T06:42:27.929Z,10.17
2023-03-29T06:43:28.367Z,10.23
2023-03-29T06:44:27.945Z,10.37
2023-03-29T06:45:29.324Z,10.49
2023-03-29T06:46:30.306Z,10.58
2023-03-29T06:47:28.016Z,10.65
2023-03-29T06:48:28.352Z,10.68
2023-03-29T06:49:28.001Z,10.83
2023-03-29T06:50:28.065Z,10.94
2023-03-29T06:51:27.935Z,10.98
2023-03-29T06:52:27.952Z,11.05
2023-03-29T06:53:28.348Z,11.07
2023-03-29T06:54:27.952Z,11.11
2023-03-29T06:55:28.366Z,11.11
2023-03-29T06:56:27.979Z,11.11
2023-03-29T06:57:30.441Z,11.16
2023-03-29T06:58:28.374Z,11.23
2023-03-29T06:59:27.991Z,11.29
2023-03-29T07:00:28.223Z,11.21
2023-03-29T07:01:28.143Z,11.02
2023-03-29T07:02:27.984Z,10.84
2023-03-29T07:03:28.346Z,10.69
2023-03-29T07:04:27.945Z,10.62
2023-03-29T07:05:27.968Z,10.66
2023-03-29T07:06:27.948Z,10.64
2023-03-29T07:07:28.054Z,10.59
2023-03-29T07:08:32.825Z,10.57
2023-03-29T07:09:28.377Z,10.52
2023-03-29T07:10:28.344Z,10.53
2023-03-29T07:11:27.902Z,10.55
2023-03-29T07:12:27.969Z,10.61
2023-03-29T07:13:28.088Z,10.56
2023-03-29T07:14:28.055Z,10.65
2023-03-29T07:15:27.965Z,10.87
2023-03-29T07:16:28.408Z,11.01
2023-03-29T07:17:27.963Z,10.97
2023-03-29T07:18:27.952Z,10.93
2023-03-29T07:19:32.920Z,10.93
2023-03-29T07:20:27.942Z,10.96
2023-03-29T07:21:27.960Z,11.03
2023-03-29T07:22:28.077Z,11.19
2023-03-29T07:23:28.056Z,11.25
2023-03-29T07:24:27.973Z,11.3
2023-03-29T07:25:27.945Z,11.35
2023-03-29T07:26:29.029Z,11.33
2023-03-29T07:27:27.949Z,11.31
2023-03-29T07:28:27.948Z,11.4
2023-03-29T07:29:28.351Z,11.44
2023-03-29T07:30:32.042Z,11.39
2023-03-29T07:31:28.371Z,11.25
2023-03-29T07:32:28.029Z,11.1
2023-03-29T07:33:27.995Z,11.03
2023-03-29T07:34:28.059Z,11.04
2023-03-29T07:35:27.966Z,11
2023-03-29T07:36:27.928Z,10.94
2023-03-29T07:37:28.085Z,10.95
2023-03-29T07:38:27.929Z,11
2023-03-29T07:39:28.075Z,11.09
2023-03-29T07:40:27.927Z,11.17
2023-03-29T07:41:30.243Z,11.1
2023-03-29T07:42:27.930Z,11.09
2023-03-29T07:43:27.929Z,11.1
2023-03-29T07:44:28.350Z,11.19
2023-03-29T07:45:28.252Z,11.3
2023-03-29T07:46:28.378Z,11.29
2023-03-29T07:47:28.135Z,11.25
2023-03-29T07:48:27.934Z,11.3
2023-03-29T07:49:28.346Z,11.43
2023-03-29T07:50:27.952Z,11.58
2023-03-29T07:51:27.933Z,11.71
2023-03-29T07:52:30.292Z,11.72
2023-03-29T07:53:28.077Z,11.76
2023-03-29T07:54:28.352Z,11.98
2023-03-29T07:55:28.057Z,12.14
2023-03-29T07:56:28.026Z,12.2
2023-03-29T07:57:27.990Z,12.25
2023-03-29T07:58:27.945Z,12.32
2023-03-29T07:59:28.340Z,12.28
2023-03-29T08:00:27.962Z,12.2
2023-03-29T08:01:28.403Z,12.2
2023-03-29T08:02:27.955Z,12.23
2023-03-29T08:03:30.347Z,12.21
2023-03-29T08:04:28.519Z,12.17
2023-03-29T08:05:40.038Z,12.12
2023-03-29T08:06:27.940Z,12.11
2023-03-29T08:07:27.952Z,12.15
2023-03-29T08:08:27.933Z,12.1
2023-03-29T08:09:28.371Z,12.07
2023-03-29T08:10:27.945Z,12.07
2023-03-29T08:11:27.925Z,12.12
2023-03-29T08:12:27.947Z,12.13
2023-03-29T08:13:27.945Z,12.12
2023-03-29T08:14:32.746Z,12.04
2023-03-29T08:15:28.132Z,11.96
2023-03-29T08:16:28.356Z,11.93
2023-03-29T08:17:27.974Z,11.9
2023-03-29T08:18:27.991Z,12.06
2023-03-29T08:19:28.345Z,12.18
2023-03-29T08:20:28.096Z,12.23
2023-03-29T08:21:27.963Z,12.4
2023-03-29T08:22:27.947Z,12.45
2023-03-29T08:23:27.955Z,12.44
2023-03-29T08:24:27.959Z,12.51
2023-03-29T08:25:30.678Z,12.58
2023-03-29T08:26:27.956Z,12.75
2023-03-29T08:27:27.940Z,12.9
2023-03-29T08:28:27.962Z,12.84
2023-03-29T08:29:27.942Z,12.81
2023-03-29T08:30:28.348Z,12.74
2023-03-29T08:31:28.426Z,12.81
2023-03-29T08:32:27.989Z,12.88
2023-03-29T08:33:27.953Z,12.93
2023-03-29T08:34:27.953Z,13.01
2023-03-29T08:35:28.349Z,13.1
2023-03-29T08:36:30.365Z,13.09
2023-03-29T08:37:27.929Z,13.21
2023-03-29T08:38:27.962Z,13.37
2023-03-29T08:39:27.932Z,13.46
2023-03-29T08:40:28.341Z,13.51
2023-03-29T08:41:27.901Z,13.6
2023-03-29T08:42:28.036Z,13.83
2023-03-29T08:43:28.073Z,14.07
2023-03-29T08:44:27.931Z,14.16
2023-03-29T08:45:28.356Z,14.32
2023-03-29T08:46:34.476Z,14.37
2023-03-29T08:47:30.354Z,14.46
2023-03-29T08:48:27.940Z,14.43
2023-03-29T08:49:27.983Z,14.6
2023-03-29T08:50:31.889Z,14.82
2023-03-29T08:51:27.985Z,14.85
2023-03-29T08:52:28.083Z,14.69
2023-03-29T08:53:27.934Z,14.58
2023-03-29T08:54:28.022Z,14.44
2023-03-29T08:55:28.034Z,14.51
2023-03-29T08:56:28.061Z,14.5
2023-03-29T08:57:27.985Z,14.58
2023-03-29T08:58:30.335Z,14.62
2023-03-29T08:59:27.951Z,14.53
2023-03-29T09:00:27.934Z,14.67
2023-03-29T09:01:28.151Z,14.87
2023-03-29T09:02:28.157Z,15.07
2023-03-29T09:03:28.171Z,15.24
2023-03-29T09:04:27.950Z,15.41
2023-03-29T09:05:27.925Z,15.5
2023-03-29T09:06:28.047Z,15.68
2023-03-29T09:07:28.067Z,15.81
2023-03-29T09:08:27.946Z,15.99
2023-03-29T09:09:30.368Z,16.03
2023-03-29T09:10:27.943Z,16.04
2023-03-29T09:11:27.952Z,16.09
2023-03-29T09:12:27.954Z,16.12
2023-03-29T09:13:28.111Z,16.02
2023-03-29T09:14:27.916Z,15.85
2023-03-29T09:15:27.952Z,15.78
2023-03-29T09:16:28.089Z,15.61
2023-03-29T09:17:27.968Z,15.45
2023-03-29T09:18:27.930Z,15.29
2023-03-29T09:19:27.948Z,15.25
2023-03-29T09:20:30.289Z,15.31
2023-03-29T09:21:28.090Z,15.38
2023-03-29T09:22:27.945Z,15.27
2023-03-29T09:23:27.987Z,15.3
2023-03-29T09:24:27.945Z,15.36
2023-03-29T09:25:27.923Z,15.33
2023-03-29T09:26:29.146Z,15.44
2023-03-29T09:27:27.979Z,15.67
2023-03-29T09:28:27.955Z,15.88
2023-03-29T09:29:27.945Z,16
2023-03-29T09:30:27.956Z,16.1
2023-03-29T09:31:32.880Z,16.21
2023-03-29T09:32:27.980Z,16.25
2023-03-29T09:33:27.949Z,16.2
2023-03-29T09:34:27.911Z,16.15
2023-03-29T09:35:27.942Z,16.1
2023-03-29T09:36:28.361Z,15.93
2023-03-29T09:37:27.946Z,15.76
2023-03-29T09:38:27.965Z,15.68
2023-03-29T09:39:28.010Z,15.58
2023-03-29T09:40:28.347Z,15.63
2023-03-29T09:41:28.339Z,15.7
2023-03-29T09:42:30.270Z,15.63
2023-03-29T09:43:28.057Z,15.45
2023-03-29T09:44:31.142Z,15.4
2023-03-29T09:45:27.968Z,15.43
2023-03-29T09:46:28.339Z,15.49
2023-03-29T09:47:28.080Z,15.57
2023-03-29T09:48:27.924Z,15.82
2023-03-29T09:49:27.945Z,16.11
2023-03-29T09:50:31.667Z,16.38
2023-03-29T09:51:28.365Z,16.56
2023-03-29T09:52:27.931Z,16.67
2023-03-29T09:53:30.307Z,16.82
2023-03-29T09:54:27.947Z,16.86
2023-03-29T09:55:28.367Z,17
2023-03-29T09:56:28.350Z,16.89
2023-03-29T09:57:27.979Z,16.98
2023-03-29T09:58:27.941Z,16.85
2023-03-29T09:59:27.924Z,16.77
2023-03-29T10:00:27.950Z,16.85
2023-03-29T10:01:28.393Z,17.07
2023-03-29T10:02:28.047Z,17.07
2023-03-29T10:03:27.932Z,17.01
2023-03-29T10:04:30.393Z,17.14
2023-03-29T10:05:27.953Z,17.07
2023-03-29T10:06:28.335Z,17.08
2023-03-29T10:07:27.930Z,17.19
2023-03-29T10:08:27.974Z,17.34
2023-03-29T10:09:27.936Z,17.27
2023-03-29T10:10:28.387Z,17.24
2023-03-29T10:11:27.922Z,17.25
2023-03-29T10:12:27.950Z,17.28
2023-03-29T10:13:27.951Z,17.15
2023-03-29T10:14:27.942Z,17.13
2023-03-29T10:15:30.799Z,17.32
2023-03-29T10:16:28.467Z,17.44
2023-03-29T10:17:27.951Z,17.47
2023-03-29T10:18:27.945Z,17.62
2023-03-29T10:19:28.073Z,17.69
2023-03-29T10:20:28.092Z,17.63
2023-03-29T10:21:28.387Z,17.64
2023-03-29T10:22:27.922Z,17.55
2023-03-29T10:23:27.930Z,17.5
2023-03-29T10:24:27.930Z,17.12
2023-03-29T10:25:28.359Z,16.95
2023-03-29T10:26:30.417Z,16.97
2023-03-29T10:27:27.928Z,17.04
2023-03-29T10:28:27.936Z,17.01
2023-03-29T10:29:27.965Z,17.11
2023-03-29T10:30:28.010Z,17.35
2023-03-29T10:31:28.388Z,17.48
2023-03-29T10:32:27.978Z,17.4
2023-03-29T10:33:27.946Z,17.15
2023-03-29T10:34:28.098Z,16.86
2023-03-29T10:35:27.922Z,16.75
2023-03-29T10:36:28.341Z,16.77
2023-03-29T10:37:30.394Z,16.79
2023-03-29T10:38:27.979Z,16.82
2023-03-29T10:39:27.930Z,16.81
2023-03-29T10:40:28.348Z,16.89
2023-03-29T10:41:27.923Z,16.97
2023-03-29T10:42:28.076Z,16.93
2023-03-29T10:43:27.969Z,16.93
2023-03-29T10:44:28.646Z,17.12
2023-03-29T10:45:28.086Z,17.38
2023-03-29T10:46:28.109Z,17.37
2023-03-29T10:47:27.964Z,17.39
2023-03-29T10:48:30.309Z,17.37
2023-03-29T10:49:27.951Z,17.31
2023-03-29T10:50:27.961Z,17.35
2023-03-29T10:51:28.077Z,17.56
2023-03-29T10:52:27.951Z,17.74
2023-03-29T10:53:27.934Z,17.86
2023-03-29T10:54:27.940Z,17.93
2023-03-29T10:55:27.980Z,18
2023-03-29T10:56:28.055Z,18.01
2023-03-29T10:57:27.983Z,18.06
2023-03-29T10:58:27.948Z,18.11
2023-03-29T10:59:30.404Z,18.3
2023-03-29T11:00:27.970Z,18.34
2023-03-29T11:01:28.388Z,18.21
2023-03-29T11:02:28.112Z,18.05
2023-03-29T11:03:28.187Z,17.8
2023-03-29T11:04:27.953Z,17.65
2023-03-29T11:05:27.947Z,17.51
2023-03-29T11:06:28.360Z,17.43
2023-03-29T11:07:27.948Z,17.58
2023-03-29T11:08:30.402Z,17.66
2023-03-29T11:09:27.937Z,17.86
2023-03-29T11:10:32.797Z,18.01
2023-03-29T11:11:28.337Z,17.95
2023-03-29T11:12:27.968Z,17.85
2023-03-29T11:13:27.948Z,17.64
2023-03-29T11:14:28.053Z,17.69
2023-03-29T11:15:28.111Z,18.04
2023-03-29T11:16:28.394Z,18.36
2023-03-29T11:17:27.960Z,18.65
2023-03-29T11:18:27.961Z,18.85
2023-03-29T11:19:27.928Z,18.76
2023-03-29T11:20:27.944Z,18.73
2023-03-29T11:21:32.836Z,18.75
2023-03-29T11:22:28.010Z,18.74
2023-03-29T11:23:28.100Z,18.57
2023-03-29T11:24:27.944Z,18.57
2023-03-29T11:25:29.734Z,18.48
2023-03-29T11:26:28.363Z,18.38
2023-03-29T11:27:27.947Z,18.31
2023-03-29T11:28:27.953Z,18.47
2023-03-29T11:29:28.088Z,18.59
2023-03-29T11:30:27.932Z,18.68
2023-03-29T11:31:28.323Z,18.85
2023-03-29T11:32:30.351Z,19.13
2023-03-29T11:33:27.943Z,19.27
2023-03-29T11:34:27.932Z,19.24
2023-03-29T11:35:27.912Z,19.39
2023-03-29T11:36:28.048Z,19.55
2023-03-29T11:37:27.947Z,19.45
2023-03-29T11:38:27.961Z,19.48
2023-03-29T11:39:27.958Z,19.7
2023-03-29T11:40:28.344Z,19.81
2023-03-29T11:41:27.922Z,19.97
2023-03-29T11:42:27.936Z,20.1
2023-03-29T11:43:30.426Z,20.07
2023-03-29T11:44:28.003Z,20.22
2023-03-29T11:45:27.946Z,20.27
2023-03-29T11:46:28.368Z,20.23
2023-03-29T11:47:27.979Z,20.01
2023-03-29T11:48:27.943Z,19.77
2023-03-29T11:49:27.944Z,19.6
2023-03-29T11:50:28.078Z,19.38
2023-03-29T11:51:28.349Z,19.35
2023-03-29T11:52:27.934Z,19.65
2023-03-29T11:53:27.917Z,19.88
2023-03-29T11:54:30.312Z,20.04
2023-03-29T11:55:28.358Z,20.16
2023-03-29T11:56:28.346Z,20.08
2023-03-29T11:57:27.941Z,19.88
2023-03-29T11:58:27.931Z,19.81
2023-03-29T11:59:27.955Z,19.65
2023-03-29T12:00:27.944Z,19.63
2023-03-29T12:01:28.351Z,19.66
2023-03-29T12:02:28.022Z,19.67
2023-03-29T12:03:28.009Z,19.69
2023-03-29T12:04:27.977Z,19.62
2023-03-29T12:05:30.285Z,19.51
2023-03-29T12:06:28.344Z,19.34
2023-03-29T12:07:27.937Z,19.07
2023-03-29T12:08:28.024Z,18.93
2023-03-29T12:09:27.950Z,18.95
2023-03-29T12:10:28.357Z,18.97
2023-03-29T12:11:28.339Z,19.02
2023-03-29T12:12:28.034Z,19.08
2023-03-29T12:13:27.944Z,19.06
2023-03-29T12:14:28.267Z,19.13
2023-03-29T12:15:28.020Z,19.36
2023-03-29T12:16:32.787Z,19.44
2023-03-29T12:17:27.962Z,19.3
2023-03-29T12:18:27.948Z,19.21
2023-03-29T12:19:27.920Z,19.54
2023-03-29T12:20:27.915Z,19.83
2023-03-29T12:21:28.354Z,19.87
2023-03-29T12:22:27.917Z,19.59
2023-03-29T12:23:27.922Z,19.22
2023-03-29T12:24:27.943Z,18.86
2023-03-29T12:25:28.359Z,18.7
2023-03-29T12:26:28.410Z,18.7
2023-03-29T12:27:30.327Z,18.61
2023-03-29T12:28:27.939Z,18.25
2023-03-29T12:29:27.957Z,18.14
2023-03-29T12:30:27.931Z,18.01
2023-03-29T12:31:28.360Z,18
2023-03-29T12:32:27.982Z,18.12
2023-03-29T12:33:27.942Z,18.46
2023-03-29T12:34:27.930Z,18.57
2023-03-29T12:35:28.080Z,18.48
2023-03-29T12:36:28.353Z,18.36
2023-03-29T12:37:27.952Z,18.24
2023-03-29T12:38:31.061Z,18.21
2023-03-29T12:39:27.943Z,18.13
2023-03-29T12:40:28.356Z,18.07
2023-03-29T12:41:28.353Z,17.94
2023-03-29T12:42:27.947Z,17.89
2023-03-29T12:43:27.944Z,17.95
2023-03-29T12:44:27.989Z,17.98
2023-03-29T12:45:27.949Z,17.97
2023-03-29T12:46:28.400Z,17.76
2023-03-29T12:47:28.037Z,17.51
2023-03-29T12:48:27.931Z,17.31
2023-03-29T12:49:30.342Z,17.06
2023-03-29T12:50:27.945Z,16.69
2023-03-29T12:51:28.354Z,16.47
2023-03-29T12:52:27.962Z,16.35
2023-03-29T12:53:27.954Z,16.26
2023-03-29T12:54:28.379Z,16.21
2023-03-29T12:55:28.375Z,16.2
2023-03-29T12:56:28.363Z,16.28
2023-03-29T12:57:28.007Z,16.39
2023-03-29T12:58:27.927Z,16.39
2023-03-29T12:59:27.949Z,16.42
2023-03-29T13:00:30.312Z,16.59
2023-03-29T13:01:28.267Z,16.8
2023-03-29T13:02:28.021Z,17
2023-03-29T13:03:28.067Z,17.27
2023-03-29T13:04:27.931Z,17.45
2023-03-29T13:05:27.950Z,17.54
2023-03-29T13:06:28.356Z,17.64
2023-03-29T13:07:27.987Z,17.94
2023-03-29T13:08:28.065Z,18.11
2023-03-29T13:09:27.948Z,18.31